Pagina principală
METAR-TAF:

METAR-TAF

Aeroporturi :

Grand Prairie Municipal Airport

Grand Prairie, Texas, Statele Unite ale Americii

Latitudine: 32-41-55N, longitudine: 097-02-48W, elevație: 180 m

Observații meteo curente

Raportul a fost făcut în urmă cu 55 de minute, la 22:50 UTC
Vânt 12 kt de la Nord-est cu rafale de până la 20 kt
Temperatură 27°C
Umiditate 54%
Presiune 1017 hPa
Vizibilitate: 16.1 km
Cer senin

METAR: KGPM 282250Z 05012G20KT 10SM SKC 27/17 A3003

Ora: 18:45 (23:45 UTC)


TAF: lipsă

Observații și prognoze meteo pentru peste 4.000 de aeroporturi (rapoarte METAR și TAF).

Stațiile disponibile sunt reprezentate pe hartă prin puncte galbene și roșii.

Țineți indicatorul mouse-ului pe punctul dorit pentru a vedea denumirea stației.

Apoi, faceți clic pentru a vedea observațiile și prognozele meteorologice.

Pentru a schimba harta: Pentru mărire, faceți clic pe butoanele verzi cu cruce neagră; pentru micșorare, pe butonul verde cu o liniuță; pentru hărți învecinate, pe săgețile verzi.


METAR-TAF: